Time;durP1;ratioP1;P1;durP2;ratioP2;P2;SDS_P1;SDS_P2;PMS_P1;PMS_P2;Temp;Humidity;BMP_temperature;BMP_pressure;BME280_temperature;BME280_humidity;BME280_pressure;Samples;Min_cycle;Max_cycle;Signal;HPM_P1;HPM_P2
2022/07/02 00:00:02;;;;;;;2.28;1.50;;;16.90;67.50;;;;;;5049274;28;20013;-68
2022/07/02 00:02:32;;;;;;;2.80;1.98;;;17.00;67.50;;;;;;5044352;28;20707;-69
2022/07/02 00:04:58;;;;;;;2.40;1.90;;;16.90;67.60;;;;;;5047346;28;20064;-69
2022/07/02 00:07:25;;;;;;;2.95;1.83;;;16.90;67.70;;;;;;5044158;28;21466;-69
2022/07/02 00:09:56;;;;;;;3.47;2.08;;;16.90;67.80;;;;;;5046205;28;20035;-71
2022/07/02 00:12:23;;;;;;;5.47;3.25;;;16.90;67.90;;;;;;5044445;28;20055;-69
2022/07/02 00:14:53;;;;;;;8.80;5.25;;;16.80;68.00;;;;;;5044941;28;20048;-70
2022/07/02 00:17:19;;;;;;;4.97;3.20;;;16.80;68.10;;;;;;5039052;28;20127;-69
2022/07/02 00:19:44;;;;;;;3.47;2.45;;;16.80;68.20;;;;;;5045267;28;20541;-68
2022/07/02 00:22:11;;;;;;;3.17;2.17;;;16.80;68.30;;;;;;5046876;28;20222;-69
2022/07/02 00:24:40;;;;;;;2.40;1.80;;;16.80;68.30;;;;;;5047465;28;20479;-68
2022/07/02 00:27:09;;;;;;;3.47;1.80;;;16.80;68.30;;;;;;5040207;28;20017;-69
2022/07/02 00:29:43;;;;;;;2.38;1.95;;;16.70;68.40;;;;;;5041777;28;20018;-68
2022/07/02 00:32:09;;;;;;;4.03;2.15;;;16.70;68.60;;;;;;5041106;28;20025;-69
2022/07/02 00:34:37;;;;;;;2.88;2.08;;;16.60;69.00;;;;;;5047741;28;20117;-69
2022/07/02 00:37:03;;;;;;;3.10;1.90;;;16.60;69.30;;;;;;5039229;28;20495;-69
2022/07/02 00:39:29;;;;;;;1.85;1.73;;;16.60;69.20;;;;;;5042904;28;20033;-71
2022/07/02 00:41:56;;;;;;;3.38;2.00;;;16.60;69.10;;;;;;5038724;28;20070;-70
2022/07/02 00:44:22;;;;;;;4.00;2.45;;;16.60;69.20;;;;;;5038262;28;20037;-71
2022/07/02 00:46:49;;;;;;;5.05;2.55;;;16.50;69.40;;;;;;5037481;28;20222;-68
2022/07/02 00:49:16;;;;;;;2.47;2.00;;;16.50;69.80;;;;;;5054800;28;20094;-69
2022/07/02 00:51:42;;;;;;;3.00;2.10;;;16.50;69.80;;;;;;5038340;28;20021;-70
2022/07/02 00:54:07;;;;;;;2.90;1.98;;;16.50;69.80;;;;;;5036889;28;20031;-70
2022/07/02 00:56:33;;;;;;;2.72;1.90;;;16.50;69.70;;;;;;5036679;28;20029;-69
2022/07/02 00:59:00;;;;;;;3.17;2.40;;;16.50;69.70;;;;;;5037805;28;20018;-70
2022/07/02 01:01:26;;;;;;;3.85;2.30;;;16.40;69.80;;;;;;5044434;28;20108;-71
2022/07/02 01:03:54;;;;;;;2.92;2.00;;;16.40;69.90;;;;;;5037501;28;20137;-70
2022/07/02 01:06:23;;;;;;;3.80;2.25;;;16.40;69.90;;;;;;5047400;28;20029;-70
2022/07/02 01:11:36;;;;;;;3.05;2.17;;;16.40;69.90;;;;;;5045296;28;20047;-69
2022/07/02 01:14:04;;;;;;;2.80;1.98;;;16.40;69.80;;;;;;5037040;28;20496;-70
2022/07/02 01:16:29;;;;;;;2.40;2.08;;;16.40;69.80;;;;;;5038667;28;20040;-70
2022/07/02 01:18:55;;;;;;;4.20;2.80;;;16.40;69.70;;;;;;5032049;28;20025;-71
2022/07/02 01:21:20;;;;;;;3.42;2.50;;;16.40;69.60;;;;;;5037852;28;20123;-70
2022/07/02 01:23:46;;;;;;;3.65;2.40;;;16.40;69.70;;;;;;5048247;28;20025;-70
2022/07/02 01:26:11;;;;;;;3.38;2.10;;;16.40;69.70;;;;;;5041794;28;20029;-71
2022/07/02 01:28:37;;;;;;;2.92;2.10;;;16.40;69.70;;;;;;5029774;28;20018;-71
2022/07/02 01:31:03;;;;;;;3.85;2.20;;;16.40;69.80;;;;;;5038280;28;20510;-70
2022/07/02 01:33:28;;;;;;;3.25;2.30;;;16.30;69.80;;;;;;5043722;28;20021;-70
2022/07/02 01:35:54;;;;;;;5.28;2.30;;;16.30;69.90;;;;;;5035416;28;20018;-71
2022/07/02 01:38:19;;;;;;;3.05;2.00;;;16.30;69.90;;;;;;5045193;28;20032;-71
2022/07/02 01:40:45;;;;;;;3.95;2.20;;;16.30;70.00;;;;;;5047628;28;20028;-71
2022/07/02 01:43:10;;;;;;;3.55;2.05;;;16.30;70.10;;;;;;5046537;28;20048;-69
2022/07/02 01:45:36;;;;;;;3.45;2.30;;;16.20;70.10;;;;;;5035033;28;20026;-70
2022/07/02 01:48:01;;;;;;;3.75;2.08;;;16.20;70.20;;;;;;5042772;28;20039;-71
2022/07/02 01:50:27;;;;;;;4.05;2.00;;;16.20;70.10;;;;;;5037289;28;20026;-70
2022/07/02 01:52:56;;;;;;;3.03;2.25;;;16.20;70.20;;;;;;5040871;28;20040;-68
2022/07/02 01:55:22;;;;;;;2.70;2.30;;;16.20;70.40;;;;;;5047503;28;20033;-70
2022/07/02 01:57:48;;;;;;;2.60;2.00;;;16.10;70.60;;;;;;5041539;28;20033;-70
2022/07/02 02:00:14;;;;;;;3.45;2.20;;;16.00;70.60;;;;;;5035015;28;20021;-69
2022/07/02 02:02:40;;;;;;;3.05;2.13;;;16.00;70.70;;;;;;5044143;28;20032;-70
2022/07/02 02:05:05;;;;;;;2.85;2.15;;;16.00;70.80;;;;;;5045655;28;20029;-69
2022/07/02 02:07:31;;;;;;;3.53;2.58;;;15.90;70.90;;;;;;5041690;28;20545;-69
2022/07/02 02:09:57;;;;;;;5.00;2.30;;;15.90;71.30;;;;;;5029612;28;20516;-68
2022/07/02 02:12:23;;;;;;;4.47;2.75;;;15.80;71.30;;;;;;5039882;28;20021;-69
2022/07/02 02:14:48;;;;;;;3.03;2.60;;;15.80;71.60;;;;;;5046389;28;20060;-70
2022/07/02 02:17:14;;;;;;;3.45;2.33;;;15.80;71.60;;;;;;5030715;28;20029;-69
2022/07/02 02:19:40;;;;;;;3.63;2.72;;;15.80;71.60;;;;;;5042403;28;20025;-68
2022/07/02 02:22:05;;;;;;;5.70;2.30;;;15.80;71.80;;;;;;5042381;28;20030;-70
2022/07/02 02:24:31;;;;;;;2.47;2.25;;;15.80;71.70;;;;;;5052427;28;20036;-70
2022/07/02 02:26:57;;;;;;;4.53;2.60;;;15.80;71.60;;;;;;5049913;28;20033;-70
2022/07/02 02:29:23;;;;;;;4.15;2.30;;;15.80;71.80;;;;;;5032747;28;20026;-70
2022/07/02 02:31:48;;;;;;;4.07;2.40;;;15.80;71.80;;;;;;5044608;28;20099;-67
2022/07/02 02:34:14;;;;;;;3.65;2.47;;;15.80;71.60;;;;;;5032986;28;20068;-68
2022/07/02 02:36:39;;;;;;;5.45;2.65;;;15.80;71.60;;;;;;5044533;28;20026;-68
2022/07/02 02:39:05;;;;;;;4.07;2.50;;;15.80;71.80;;;;;;5047534;28;20023;-68
2022/07/02 02:41:30;;;;;;;2.58;2.38;;;15.80;71.80;;;;;;5042827;28;20454;-68
2022/07/02 02:43:56;;;;;;;3.72;2.20;;;15.80;71.70;;;;;;5041673;28;20475;-67
2022/07/02 02:46:22;;;;;;;3.33;2.40;;;15.80;71.70;;;;;;5033499;28;20075;-69
2022/07/02 02:48:47;;;;;;;2.63;2.30;;;15.70;71.80;;;;;;5047708;28;20025;-68
2022/07/02 02:51:15;;;;;;;2.85;2.53;;;15.70;71.80;;;;;;5040069;28;20033;-68
2022/07/02 02:53:44;;;;;;;4.57;2.65;;;15.70;72.00;;;;;;5051267;28;20032;-69
2022/07/02 02:56:11;;;;;;;3.60;2.42;;;15.60;72.10;;;;;;5039067;28;20029;-69
2022/07/02 02:58:37;;;;;;;3.10;2.17;;;15.60;72.30;;;;;;5050444;28;20045;-68
2022/07/02 03:01:03;;;;;;;3.58;2.30;;;15.60;72.40;;;;;;5033320;28;20022;-67
2022/07/02 03:03:29;;;;;;;3.03;2.50;;;15.60;72.40;;;;;;5041463;28;20037;-67
2022/07/02 03:05:54;;;;;;;4.70;2.60;;;15.60;72.40;;;;;;5044929;28;20534;-68
2022/07/02 03:08:21;;;;;;;4.15;2.90;;;15.60;72.40;;;;;;5032200;28;20119;-69
2022/07/02 03:10:47;;;;;;;3.30;2.60;;;15.50;72.50;;;;;;5035878;28;20029;-69
2022/07/02 03:13:14;;;;;;;2.80;2.50;;;15.50;72.60;;;;;;5048264;28;20088;-69
2022/07/02 03:15:39;;;;;;;3.50;2.50;;;15.50;72.50;;;;;;5038678;28;20021;-69
2022/07/02 03:18:05;;;;;;;3.00;2.70;;;15.50;72.60;;;;;;5040771;28;20033;-68
2022/07/02 03:20:31;;;;;;;2.78;2.38;;;15.50;72.50;;;;;;5035473;28;20547;-69
2022/07/02 03:22:57;;;;;;;4.30;2.58;;;15.50;72.50;;;;;;5044675;28;20025;-70
2022/07/02 03:25:22;;;;;;;2.83;2.28;;;15.50;72.50;;;;;;5050129;28;20017;-69
2022/07/02 03:27:48;;;;;;;3.17;2.20;;;15.60;72.50;;;;;;5039979;28;20025;-70
2022/07/02 03:30:14;;;;;;;2.70;2.10;;;15.50;72.30;;;;;;5048023;28;20438;-69
2022/07/02 03:32:39;;;;;;;5.05;2.70;;;15.50;72.40;;;;;;5038766;28;20052;-68
2022/07/02 03:35:05;;;;;;;3.75;2.78;;;15.60;72.40;;;;;;5041219;28;20696;-69
2022/07/02 03:37:31;;;;;;;2.72;2.00;;;15.60;72.40;;;;;;5039150;28;20025;-70
2022/07/02 03:39:56;;;;;;;2.47;2.20;;;15.50;72.30;;;;;;5039419;28;20451;-69
2022/07/02 03:42:22;;;;;;;3.83;2.40;;;15.60;72.40;;;;;;5033345;28;20034;-69
2022/07/02 03:44:48;;;;;;;4.05;2.85;;;15.50;72.40;;;;;;5044817;28;20120;-69
2022/07/02 03:47:14;;;;;;;3.28;2.60;;;15.60;72.50;;;;;;5045353;28;20100;-68
2022/07/02 03:49:39;;;;;;;3.33;2.38;;;15.60;72.50;;;;;;5047314;28;20548;-70
2022/07/02 03:52:05;;;;;;;4.07;2.75;;;15.60;72.50;;;;;;5043649;28;20025;-69
2022/07/02 03:54:31;;;;;;;3.65;2.50;;;15.70;72.50;;;;;;5048652;28;20029;-68
2022/07/02 03:56:57;;;;;;;4.07;2.70;;;15.70;72.30;;;;;;5044899;28;20530;-69
2022/07/02 03:59:22;;;;;;;6.57;3.20;;;15.70;72.40;;;;;;5036190;28;20028;-70
2022/07/02 04:01:48;;;;;;;5.03;3.40;;;15.70;72.40;;;;;;5035633;28;20029;-70
2022/07/02 04:04:13;;;;;;;3.47;2.90;;;15.70;72.60;;;;;;5043449;28;20040;-70
2022/07/02 04:06:39;;;;;;;5.78;3.25;;;15.70;72.50;;;;;;5047109;28;20040;-69
2022/07/02 04:09:04;;;;;;;4.22;2.83;;;15.70;72.50;;;;;;5048201;28;20484;-69
2022/07/02 04:11:30;;;;;;;4.35;2.80;;;15.70;72.60;;;;;;5030318;28;20048;-70
2022/07/02 04:13:56;;;;;;;7.03;3.90;;;15.60;72.60;;;;;;5046852;28;20028;-69
2022/07/02 04:16:21;;;;;;;4.80;3.30;;;15.60;72.70;;;;;;5049055;28;20036;-68
2022/07/02 04:18:47;;;;;;;8.32;3.35;;;15.60;72.80;;;;;;5035514;28;20076;-69
2022/07/02 04:21:12;;;;;;;3.55;2.90;;;15.60;72.80;;;;;;5035492;28;20029;-70
2022/07/02 04:23:38;;;;;;;4.30;3.10;;;15.60;72.90;;;;;;5056150;28;20054;-69
2022/07/02 04:26:05;;;;;;;6.40;3.40;;;15.60;72.80;;;;;;5050006;28;20071;-67
2022/07/02 04:28:31;;;;;;;5.95;3.35;;;15.60;72.80;;;;;;5051500;28;20029;-70
2022/07/02 04:30:56;;;;;;;3.88;2.83;;;15.70;72.80;;;;;;5042246;28;20030;-70
2022/07/02 04:33:22;;;;;;;4.20;2.95;;;15.70;72.60;;;;;;5033253;28;20536;-69
2022/07/02 04:35:47;;;;;;;5.80;3.40;;;15.70;72.50;;;;;;5044740;28;20021;-68
2022/07/02 04:38:13;;;;;;;4.75;3.17;;;15.70;72.50;;;;;;5037269;28;20029;-69
2022/07/02 04:40:38;;;;;;;4.28;3.05;;;15.80;72.50;;;;;;5034158;28;20021;-70
2022/07/02 04:43:04;;;;;;;3.42;2.67;;;15.80;72.30;;;;;;5039369;28;20413;-69
2022/07/02 04:45:30;;;;;;;4.68;2.92;;;15.80;72.10;;;;;;5034105;28;20052;-71
2022/07/02 04:47:55;;;;;;;4.78;2.85;;;15.90;72.60;;;;;;5032685;28;20037;-70
2022/07/02 04:50:21;;;;;;;3.78;2.85;;;16.00;71.70;;;;;;5030762;28;20550;-69
2022/07/02 04:52:49;;;;;;;5.15;3.10;;;16.10;71.30;;;;;;5044215;28;20033;-69
2022/07/02 04:55:15;;;;;;;3.08;2.42;;;16.20;71.10;;;;;;5045947;28;20087;-68
2022/07/02 04:57:41;;;;;;;3.83;2.60;;;16.40;70.60;;;;;;5045990;28;20034;-69
2022/07/02 05:00:08;;;;;;;4.68;2.88;;;16.40;70.30;;;;;;5039589;28;20025;-69
2022/07/02 05:02:37;;;;;;;4.85;2.40;;;16.40;70.20;;;;;;5044866;28;20037;-68
2022/07/02 05:05:03;;;;;;;3.80;2.30;;;16.40;70.00;;;;;;5041518;28;20514;-70
2022/07/02 05:07:30;;;;;;;3.95;2.53;;;16.40;69.80;;;;;;5030096;28;20033;-69
2022/07/02 05:09:57;;;;;;;3.35;2.53;;;16.50;69.80;;;;;;5039019;28;21051;-69
2022/07/02 05:12:23;;;;;;;5.90;2.63;;;16.50;69.70;;;;;;5029652;28;20427;-68
2022/07/02 05:14:48;;;;;;;4.25;2.60;;;16.50;69.60;;;;;;5048208;28;20029;-69
2022/07/02 05:17:14;;;;;;;4.07;2.92;;;16.50;69.60;;;;;;5029876;28;20037;-68
2022/07/02 05:19:39;;;;;;;4.90;2.50;;;16.50;69.70;;;;;;5039368;28;20029;-69
2022/07/02 05:22:05;;;;;;;4.20;2.30;;;16.70;69.60;;;;;;5048037;28;20024;-68
2022/07/02 05:24:30;;;;;;;3.08;2.10;;;17.60;68.20;;;;;;5033663;28;20512;-68
2022/07/02 05:26:56;;;;;;;3.45;1.98;;;18.60;66.00;;;;;;5030071;28;20017;-69
2022/07/02 05:29:21;;;;;;;2.42;1.95;;;19.40;63.90;;;;;;5032751;28;20072;-70
2022/07/02 05:31:47;;;;;;;3.28;1.83;;;19.90;62.40;;;;;;5030086;28;20057;-69
2022/07/02 05:34:12;;;;;;;4.68;2.13;;;19.50;62.30;;;;;;5031052;28;20041;-69
2022/07/02 05:36:38;;;;;;;4.50;2.10;;;19.00;62.60;;;;;;5029720;28;20558;-68
2022/07/02 05:39:04;;;;;;;3.75;2.60;;;18.70;63.40;;;;;;5043631;28;20025;-68
2022/07/02 05:41:29;;;;;;;3.38;2.10;;;18.40;63.50;;;;;;5041625;28;20033;-67
2022/07/02 05:43:58;;;;;;;2.30;2.00;;;18.30;64.10;;;;;;5048623;28;20032;-71
2022/07/02 05:46:24;;;;;;;3.38;1.90;;;18.30;64.40;;;;;;5043912;28;20035;-70
2022/07/02 05:48:49;;;;;;;2.83;1.85;;;18.50;64.40;;;;;;5033172;28;20029;-69
2022/07/02 05:51:16;;;;;;;4.85;2.30;;;18.80;64.10;;;;;;5044143;28;20112;-71
2022/07/02 05:53:42;;;;;;;3.78;2.10;;;19.30;62.90;;;;;;5046885;28;20012;-70
2022/07/02 05:56:07;;;;;;;4.72;2.30;;;19.30;62.50;;;;;;5045997;28;20487;-71
2022/07/02 05:58:33;;;;;;;2.63;1.90;;;19.10;62.10;;;;;;5061069;28;20071;-70
2022/07/02 06:00:58;;;;;;;2.88;1.80;;;18.90;62.50;;;;;;5050692;28;20112;-69
2022/07/02 06:03:24;;;;;;;4.78;2.13;;;18.80;62.80;;;;;;5049297;28;20434;-69
2022/07/02 06:08:33;;;;;;;3.58;1.92;;;18.50;62.80;;;;;;5046400;28;20040;-69
2022/07/02 06:10:59;;;;;;;2.58;1.33;;;18.50;63.10;;;;;;5052952;28;20025;-69
2022/07/02 06:13:24;;;;;;;3.10;1.70;;;18.40;63.00;;;;;;5045136;28;20049;-67
2022/07/02 06:15:50;;;;;;;1.88;1.30;;;18.50;63.00;;;;;;5034282;28;20067;-69
2022/07/02 06:18:16;;;;;;;2.22;1.58;;;18.50;62.90;;;;;;5046991;28;20040;-69
2022/07/02 06:20:41;;;;;;;4.63;1.80;;;18.60;62.80;;;;;;5041637;28;20025;-69
2022/07/02 06:23:07;;;;;;;3.88;1.95;;;18.60;62.50;;;;;;5044393;28;20521;-67
2022/07/02 06:25:33;;;;;;;3.33;1.80;;;18.50;62.20;;;;;;5052640;28;20092;-70
2022/07/02 06:27:59;;;;;;;2.85;1.33;;;18.50;62.10;;;;;;5042449;28;20680;-70
2022/07/02 06:30:25;;;;;;;3.17;1.40;;;18.50;62.80;;;;;;5047843;28;20163;-67
2022/07/02 06:32:52;;;;;;;2.85;1.38;;;18.60;62.30;;;;;;5046451;28;20120;-69
2022/07/02 06:35:17;;;;;;;1.80;1.60;;;18.60;62.20;;;;;;5050984;28;20021;-68
2022/07/02 06:37:43;;;;;;;2.35;1.50;;;18.70;62.20;;;;;;5044033;28;20447;-70
2022/07/02 06:40:09;;;;;;;2.05;1.10;;;18.70;62.00;;;;;;5049343;28;20106;-67
2022/07/02 06:42:34;;;;;;;2.78;1.40;;;18.70;62.00;;;;;;5046113;28;20114;-69
2022/07/02 06:45:00;;;;;;;1.15;1.00;;;18.80;61.80;;;;;;5046886;28;20041;-69
2022/07/02 06:47:27;;;;;;;2.65;1.30;;;18.90;61.60;;;;;;5037518;28;20391;-67
2022/07/02 06:49:57;;;;;;;1.58;1.17;;;19.00;61.30;;;;;;5044230;28;20112;-70
2022/07/02 06:52:24;;;;;;;2.53;1.10;;;19.30;61.00;;;;;;5043660;28;20025;-69
2022/07/02 06:54:49;;;;;;;1.60;1.20;;;19.50;60.50;;;;;;5050963;28;20032;-69
2022/07/02 06:57:16;;;;;;;3.17;1.30;;;19.80;59.70;;;;;;5043093;28;20025;-69
2022/07/02 06:59:41;;;;;;;2.08;1.00;;;19.90;58.80;;;;;;5037922;28;20061;-69
2022/07/02 07:02:08;;;;;;;1.10;0.90;;;20.20;58.20;;;;;;5040806;28;20060;-68
2022/07/02 07:04:35;;;;;;;1.48;0.90;;;20.50;57.80;;;;;;5047026;28;20033;-68
2022/07/02 07:07:04;;;;;;;2.05;1.02;;;20.60;56.50;;;;;;5048141;28;20690;-67
2022/07/02 07:09:31;;;;;;;1.60;0.88;;;20.80;55.60;;;;;;5050424;28;20430;-69
2022/07/02 07:11:57;;;;;;;2.78;0.80;;;21.10;55.30;;;;;;5052279;28;20068;-67
2022/07/02 07:14:23;;;;;;;2.15;0.88;;;21.30;54.80;;;;;;5060611;28;20126;-67
2022/07/02 07:16:49;;;;;;;1.50;1.00;;;21.30;54.00;;;;;;5067898;28;20091;-69
2022/07/02 07:19:14;;;;;;;1.75;0.85;;;21.30;54.30;;;;;;5051600;28;20025;-68
2022/07/02 07:21:42;;;;;;;1.42;0.82;;;21.50;54.80;;;;;;5049797;28;20503;-69
2022/07/02 07:24:09;;;;;;;1.77;1.00;;;21.60;53.50;;;;;;5053073;28;20051;-68
2022/07/02 07:26:36;;;;;;;1.55;0.93;;;21.60;52.60;;;;;;5062350;28;20048;-69
2022/07/02 07:29:02;;;;;;;2.63;1.13;;;21.70;52.90;;;;;;5033514;28;20030;-67
2022/07/02 07:31:28;;;;;;;2.45;0.82;;;21.80;52.50;;;;;;5034986;28;20036;-68
2022/07/02 07:33:55;;;;;;;1.25;0.60;;;21.90;51.10;;;;;;5035432;28;20029;-67
2022/07/02 07:36:22;;;;;;;0.50;0.50;;;21.90;51.20;;;;;;5037343;28;20964;-70
2022/07/02 07:38:50;;;;;;;1.60;0.80;;;22.00;50.10;;;;;;5041752;28;20108;-69
2022/07/02 07:41:16;;;;;;;1.83;0.60;;;22.00;49.30;;;;;;5049354;28;20029;-70
2022/07/02 07:43:42;;;;;;;1.33;0.60;;;21.80;47.10;;;;;;5040902;28;20025;-70
2022/07/02 07:46:07;;;;;;;0.93;0.50;;;21.70;47.90;;;;;;5044358;28;20035;-69
2022/07/02 07:48:33;;;;;;;0.75;0.50;;;21.70;47.80;;;;;;5050202;28;20475;-69
2022/07/02 07:50:59;;;;;;;0.75;0.47;;;21.80;48.70;;;;;;5037879;28;20021;-68
2022/07/02 07:53:25;;;;;;;0.80;0.50;;;22.00;48.90;;;;;;5030492;28;20090;-68
2022/07/02 07:55:51;;;;;;;0.50;0.43;;;22.30;48.70;;;;;;5041952;28;20025;-69
2022/07/02 07:58:17;;;;;;;1.85;0.70;;;22.40;47.60;;;;;;5034403;28;20155;-69
2022/07/02 08:00:43;;;;;;;2.17;0.55;;;22.40;47.30;;;;;;5030546;28;20029;-68
2022/07/02 08:03:08;;;;;;;1.00;0.47;;;22.60;47.30;;;;;;5037614;28;20025;-69
2022/07/02 08:05:34;;;;;;;0.73;0.60;;;22.70;47.20;;;;;;5031746;28;20487;-67
2022/07/02 08:08:00;;;;;;;0.80;0.43;;;22.80;47.20;;;;;;5040817;28;20033;-67
2022/07/02 08:10:26;;;;;;;0.50;0.50;;;22.80;46.40;;;;;;5050348;28;20017;-69
2022/07/02 08:12:52;;;;;;;0.60;0.40;;;22.90;45.90;;;;;;5036306;28;20029;-66
2022/07/02 08:15:17;;;;;;;1.02;0.47;;;22.90;45.90;;;;;;5048025;28;20017;-68
2022/07/02 08:17:43;;;;;;;0.82;0.50;;;23.00;45.90;;;;;;5040521;28;20021;-68
2022/07/02 08:20:10;;;;;;;1.77;0.80;;;23.00;45.70;;;;;;5033049;28;20399;-67
2022/07/02 08:22:36;;;;;;;1.27;0.65;;;23.10;45.40;;;;;;5031342;28;20112;-69
2022/07/02 08:25:07;;;;;;;1.27;0.40;;;23.00;45.40;;;;;;5046228;28;20036;-69
2022/07/02 08:27:33;;;;;;;0.88;0.52;;;23.10;46.00;;;;;;5042947;28;20026;-69
2022/07/02 08:29:58;;;;;;;1.83;0.70;;;23.30;45.70;;;;;;5045266;28;20717;-69
2022/07/02 08:32:24;;;;;;;1.42;0.50;;;23.40;45.90;;;;;;5048013;28;20029;-69
2022/07/02 08:34:51;;;;;;;0.98;0.50;;;23.50;45.80;;;;;;5048571;28;20056;-69
2022/07/02 08:37:16;;;;;;;0.85;0.40;;;23.50;45.60;;;;;;5043699;28;20466;-69
2022/07/02 08:39:42;;;;;;;1.90;0.60;;;23.60;45.80;;;;;;5037766;28;20025;-68
2022/07/02 08:42:09;;;;;;;1.75;0.70;;;23.70;45.90;;;;;;5038222;28;20048;-67
2022/07/02 08:44:36;;;;;;;1.50;0.70;;;23.80;45.80;;;;;;5046895;28;20037;-69
2022/07/02 08:47:08;;;;;;;2.67;0.85;;;23.70;45.10;;;;;;5047495;28;20025;-69
2022/07/02 08:49:35;;;;;;;1.92;0.63;;;23.50;45.10;;;;;;5032073;28;20091;-67
2022/07/02 08:52:04;;;;;;;1.27;0.60;;;23.60;45.60;;;;;;5040361;28;20021;-68
2022/07/02 08:54:31;;;;;;;2.72;0.75;;;23.70;45.70;;;;;;5038286;28;20162;-68
2022/07/02 08:57:00;;;;;;;1.00;0.60;;;23.70;45.40;;;;;;5050140;28;20492;-68
2022/07/02 08:59:26;;;;;;;3.10;0.70;;;23.70;45.40;;;;;;5030024;28;20473;-69
2022/07/02 09:01:52;;;;;;;1.17;0.70;;;23.60;44.70;;;;;;5031960;28;20156;-69
2022/07/02 09:04:19;;;;;;;1.30;0.73;;;23.50;45.40;;;;;;5044911;28;20021;-67
2022/07/02 09:06:49;;;;;;;2.20;0.88;;;23.50;45.70;;;;;;5049982;28;20035;-68
2022/07/02 09:09:16;;;;;;;2.08;0.93;;;23.50;45.70;;;;;;5037892;28;20112;-68
2022/07/02 09:11:41;;;;;;;1.75;0.90;;;23.60;45.50;;;;;;5048410;28;20112;-69
2022/07/02 09:14:08;;;;;;;1.23;0.70;;;23.50;45.40;;;;;;5035483;28;20056;-69
2022/07/02 09:16:34;;;;;;;3.10;0.82;;;23.60;45.90;;;;;;5030128;28;20022;-69
2022/07/02 09:19:00;;;;;;;2.45;0.90;;;23.70;45.70;;;;;;5033920;28;20033;-68
2022/07/02 09:21:25;;;;;;;1.80;0.93;;;23.70;45.00;;;;;;5049274;28;20502;-69
2022/07/02 09:23:51;;;;;;;1.65;0.80;;;23.40;44.70;;;;;;5038579;28;20045;-68
2022/07/02 09:26:21;;;;;;;1.55;0.70;;;23.40;45.30;;;;;;5031841;28;20065;-68
2022/07/02 09:28:54;;;;;;;2.15;0.90;;;23.30;45.60;;;;;;5041984;28;20033;-69
2022/07/02 09:31:20;;;;;;;1.90;0.80;;;23.30;45.80;;;;;;5051376;28;20112;-68
2022/07/02 09:33:45;;;;;;;1.67;0.90;;;23.40;46.10;;;;;;5050153;28;20108;-68
2022/07/02 09:36:12;;;;;;;2.20;0.95;;;23.50;46.40;;;;;;5043935;28;20105;-68
2022/07/02 09:38:49;;;;;;;1.98;0.70;;;23.80;45.80;;;;;;5043717;28;20040;-67
2022/07/02 09:41:20;;;;;;;2.05;0.88;;;23.90;45.70;;;;;;5052487;28;20047;-67
2022/07/02 09:44:02;;;;;;;1.83;0.55;;;24.00;45.60;;;;;;5048297;28;20109;-67
2022/07/02 09:46:29;;;;;;;1.45;0.75;;;24.30;45.70;;;;;;5032735;28;20582;-67
2022/07/02 09:49:08;;;;;;;2.35;0.80;;;24.30;45.30;;;;;;5038332;28;20079;-68
2022/07/02 09:51:44;;;;;;;2.00;0.80;;;24.30;44.50;;;;;;5051044;28;20450;-68
2022/07/02 09:54:09;;;;;;;2.45;0.88;;;24.20;44.40;;;;;;5039894;28;20096;-68
2022/07/02 09:56:35;;;;;;;1.50;0.70;;;24.10;44.80;;;;;;5052071;28;20112;-68
2022/07/02 09:59:00;;;;;;;2.63;0.82;;;24.20;45.10;;;;;;5041520;28;20048;-68
2022/07/02 10:01:26;;;;;;;1.88;0.60;;;24.40;45.20;;;;;;5037052;28;20503;-68
2022/07/02 10:03:54;;;;;;;1.60;0.70;;;24.40;44.60;;;;;;5033232;28;20112;-68
2022/07/02 10:06:20;;;;;;;2.25;0.90;;;24.50;44.40;;;;;;5042682;28;20021;-68
2022/07/02 10:08:47;;;;;;;2.22;1.48;;;24.50;43.40;;;;;;5052118;28;20029;-68
2022/07/02 10:11:14;;;;;;;2.63;0.80;;;24.30;43.10;;;;;;5047446;28;20040;-67
2022/07/02 10:13:40;;;;;;;2.58;0.90;;;24.00;43.10;;;;;;5052774;28;20082;-67
2022/07/02 10:16:14;;;;;;;1.00;0.50;;;23.90;43.60;;;;;;5045485;28;20025;-67
2022/07/02 10:18:41;;;;;;;0.70;0.60;;;24.00;44.30;;;;;;5032888;28;20124;-67
2022/07/02 10:21:08;;;;;;;2.28;0.55;;;24.10;44.50;;;;;;5044397;28;20541;-68
2022/07/02 10:23:34;;;;;;;1.50;0.63;;;24.30;44.60;;;;;;5032460;28;20055;-67
2022/07/02 10:26:00;;;;;;;1.60;0.80;;;24.50;44.50;;;;;;5036406;28;20018;-68
2022/07/02 10:28:26;;;;;;;2.65;0.90;;;24.70;44.00;;;;;;5033252;28;20021;-68
2022/07/02 10:30:53;;;;;;;1.48;0.80;;;24.80;43.70;;;;;;5035162;28;20480;-68
2022/07/02 10:33:31;;;;;;;2.20;0.73;;;25.00;43.50;;;;;;5046214;28;20025;-68
2022/07/02 10:35:59;;;;;;;1.35;0.70;;;25.10;43.10;;;;;;5034493;28;20103;-69
2022/07/02 10:38:29;;;;;;;2.72;1.05;;;25.40;43.20;;;;;;5036552;28;20026;-68
2022/07/02 10:40:55;;;;;;;2.28;0.80;;;25.60;43.10;;;;;;5038153;28;20026;-68
2022/07/02 10:43:22;;;;;;;1.30;0.75;;;25.70;42.50;;;;;;5052325;28;20045;-68
2022/07/02 10:45:47;;;;;;;2.33;0.80;;;25.70;42.00;;;;;;5051083;28;20032;-67
2022/07/02 10:48:14;;;;;;;1.00;0.70;;;25.50;41.60;;;;;;5048301;28;20021;-67
2022/07/02 10:50:44;;;;;;;1.00;0.50;;;25.50;41.70;;;;;;5032552;28;20473;-68
2022/07/02 10:53:13;;;;;;;1.77;0.63;;;25.70;41.80;;;;;;5051035;28;20035;-68
2022/07/02 10:55:43;;;;;;;1.23;0.80;;;25.70;42.10;;;;;;5035922;28;20025;-68
2022/07/02 10:58:24;;;;;;;1.60;0.70;;;25.90;41.30;;;;;;5049085;28;20043;-68
2022/07/02 11:00:50;;;;;;;1.90;0.93;;;26.00;40.40;;;;;;5042427;28;20550;-67
2022/07/02 11:03:19;;;;;;;2.55;1.00;;;25.90;40.40;;;;;;5032623;28;20108;-67
2022/07/02 11:05:52;;;;;;;2.15;0.80;;;25.90;39.70;;;;;;5034759;28;20101;-67
2022/07/02 11:08:44;;;;;;;1.92;0.50;;;25.80;40.20;;;;;;5034676;28;20029;-68
2022/07/02 11:11:41;;;;;;;1.45;0.68;;;26.00;40.80;;;;;;5050073;28;21933;-68
2022/07/02 11:14:08;;;;;;;2.40;0.98;;;26.00;39.90;;;;;;5038840;28;20029;-67
2022/07/02 11:16:38;;;;;;;2.40;1.00;;;25.70;39.30;;;;;;5044571;28;20071;-68
2022/07/02 11:19:24;;;;;;;1.98;0.70;;;25.70;39.60;;;;;;5042112;28;20033;-68
2022/07/02 11:21:54;;;;;;;1.35;0.57;;;25.70;40.40;;;;;;5035745;28;20040;-67
2022/07/02 11:24:21;;;;;;;2.55;1.80;;;25.90;40.70;;;;;;5045476;28;20029;-67
2022/07/02 11:26:47;;;;;;;5.70;3.38;;;25.90;40.20;;;;;;5038530;28;20476;-67
2022/07/02 11:29:13;;;;;;;3.72;1.30;;;25.90;40.10;;;;;;5032661;28;20056;-67
2022/07/02 11:31:45;;;;;;;1.50;0.80;;;26.20;40.20;;;;;;5045894;28;20032;-67
2022/07/02 11:34:13;;;;;;;2.50;0.95;;;26.40;39.90;;;;;;5037998;28;20047;-67
2022/07/02 11:36:39;;;;;;;2.30;0.70;;;26.40;39.10;;;;;;5048404;28;20154;-68
2022/07/02 11:39:13;;;;;;;2.60;0.90;;;26.40;39.20;;;;;;5042546;28;20022;-68
2022/07/02 11:41:39;;;;;;;2.15;0.80;;;26.40;38.70;;;;;;5037377;28;20029;-67
2022/07/02 11:44:15;;;;;;;1.40;0.55;;;26.50;39.00;;;;;;5031723;28;20083;-68
2022/07/02 11:46:44;;;;;;;1.13;0.60;;;26.70;39.10;;;;;;5032073;28;20801;-68
2022/07/02 11:49:18;;;;;;;2.22;0.82;;;27.00;39.10;;;;;;5039464;28;20116;-68
2022/07/02 11:51:44;;;;;;;2.45;0.77;;;27.10;38.20;;;;;;5031952;28;20488;-67
2022/07/02 11:54:13;;;;;;;1.77;0.80;;;26.90;38.60;;;;;;5046236;28;20128;-69
2022/07/02 11:56:39;;;;;;;3.33;1.00;;;26.70;38.30;;;;;;5039061;28;20348;-69
2022/07/02 11:59:09;;;;;;;1.40;0.60;;;26.70;37.90;;;;;;5032063;28;20060;-69
2022/07/02 12:01:35;;;;;;;1.80;0.68;;;26.70;38.40;;;;;;5031126;28;20071;-68
2022/07/02 12:04:03;;;;;;;1.65;0.73;;;26.90;38.70;;;;;;5034148;28;20032;-69
2022/07/02 12:06:32;;;;;;;3.60;1.00;;;27.10;38.50;;;;;;5038563;28;20686;-69
2022/07/02 12:09:00;;;;;;;1.25;0.70;;;27.00;37.80;;;;;;5035753;28;20108;-69
2022/07/02 12:11:27;;;;;;;4.10;0.85;;;27.00;38.30;;;;;;5034640;28;20035;-69
2022/07/02 12:13:54;;;;;;;1.50;0.73;;;26.80;38.10;;;;;;5035394;28;20021;-69
2022/07/02 12:16:24;;;;;;;2.88;0.70;;;26.90;38.30;;;;;;5032133;28;20516;-70
2022/07/02 12:18:58;;;;;;;1.23;0.57;;;27.10;38.40;;;;;;5044513;28;20025;-69
2022/07/02 12:21:32;;;;;;;2.03;0.80;;;27.40;38.60;;;;;;5036198;28;20060;-69
2022/07/02 12:23:58;;;;;;;2.05;0.90;;;27.30;37.70;;;;;;5044862;28;20029;-69
2022/07/02 12:26:26;;;;;;;0.98;0.70;;;27.00;37.60;;;;;;5049058;28;20029;-69
2022/07/02 12:31:52;;;;;;;1.85;0.85;;;26.60;38.30;;;;;;5041963;28;20120;-69
2022/07/02 12:34:20;;;;;;;2.63;0.90;;;26.60;38.50;;;;;;5033782;28;20053;-69
2022/07/02 12:36:53;;;;;;;2.35;1.00;;;26.70;38.40;;;;;;5030606;28;20033;-69
2022/07/02 12:39:21;;;;;;;0.68;0.60;;;26.70;38.00;;;;;;5031887;28;20370;-69
2022/07/02 12:41:47;;;;;;;1.08;0.77;;;26.50;38.40;;;;;;5043005;28;20032;-69
2022/07/02 12:44:23;;;;;;;1.20;0.60;;;26.30;38.60;;;;;;5033781;28;20534;-69
2022/07/02 12:46:52;;;;;;;1.25;0.52;;;26.20;39.10;;;;;;5030875;28;20078;-69
2022/07/02 12:49:22;;;;;;;0.90;0.57;;;26.40;39.30;;;;;;5031128;28;20056;-69
2022/07/02 12:52:02;;;;;;;1.92;0.50;;;26.70;39.20;;;;;;5036530;28;20488;-69
2022/07/02 12:54:38;;;;;;;1.92;0.70;;;27.20;39.30;;;;;;5041212;28;20423;-69